sensor_id;sensor_type;location;lat;lon;timestamp;P1;durP1;ratioP1;P2;durP2;ratioP2
79249;SDS011;68679;51.030;7.584;2023-06-26T00:01:14;8.32;;;5.57;;
79249;SDS011;68679;51.030;7.584;2023-06-26T00:03:39;8.85;;;5.55;;
79249;SDS011;68679;51.030;7.584;2023-06-26T00:06:05;9.37;;;5.63;;
79249;SDS011;68679;51.030;7.584;2023-06-26T00:08:30;10.40;;;6.20;;
79249;SDS011;68679;51.030;7.584;2023-06-26T00:10:56;9.90;;;5.90;;
79249;SDS011;68679;51.030;7.584;2023-06-26T00:13:21;8.40;;;5.80;;
79249;SDS011;68679;51.030;7.584;2023-06-26T00:15:47;11.18;;;6.53;;
79249;SDS011;68679;51.030;7.584;2023-06-26T00:18:12;12.07;;;6.10;;
79249;SDS011;68679;51.030;7.584;2023-06-26T00:20:38;11.37;;;5.97;;
79249;SDS011;68679;51.030;7.584;2023-06-26T00:23:03;9.87;;;6.23;;
79249;SDS011;68679;51.030;7.584;2023-06-26T00:25:32;8.07;;;5.78;;
79249;SDS011;68679;51.030;7.584;2023-06-26T00:27:58;10.73;;;5.82;;
79249;SDS011;68679;51.030;7.584;2023-06-26T00:30:23;9.17;;;6.10;;
79249;SDS011;68679;51.030;7.584;2023-06-26T00:32:49;7.83;;;5.80;;
79249;SDS011;68679;51.030;7.584;2023-06-26T00:35:14;10.60;;;6.90;;
79249;SDS011;68679;51.030;7.584;2023-06-26T00:37:40;9.27;;;5.95;;
79249;SDS011;68679;51.030;7.584;2023-06-26T00:40:05;11.93;;;6.70;;
79249;SDS011;68679;51.030;7.584;2023-06-26T00:42:31;10.80;;;6.32;;
79249;SDS011;68679;51.030;7.584;2023-06-26T00:44:56;11.25;;;5.93;;
79249;SDS011;68679;51.030;7.584;2023-06-26T00:47:22;8.80;;;6.23;;
79249;SDS011;68679;51.030;7.584;2023-06-26T00:49:47;10.00;;;5.65;;
79249;SDS011;68679;51.030;7.584;2023-06-26T00:52:13;9.40;;;5.85;;
79249;SDS011;68679;51.030;7.584;2023-06-26T00:54:38;10.33;;;6.23;;
79249;SDS011;68679;51.030;7.584;2023-06-26T00:57:04;9.15;;;6.15;;
79249;SDS011;68679;51.030;7.584;2023-06-26T00:59:29;10.37;;;5.90;;
79249;SDS011;68679;51.030;7.584;2023-06-26T01:01:55;11.07;;;6.23;;
79249;SDS011;68679;51.030;7.584;2023-06-26T01:04:20;9.27;;;6.00;;
79249;SDS011;68679;51.030;7.584;2023-06-26T01:06:46;9.93;;;5.93;;
79249;SDS011;68679;51.030;7.584;2023-06-26T01:09:14;10.00;;;6.22;;
79249;SDS011;68679;51.030;7.584;2023-06-26T01:11:41;10.77;;;6.20;;
79249;SDS011;68679;51.030;7.584;2023-06-26T01:14:06;11.70;;;6.10;;
79249;SDS011;68679;51.030;7.584;2023-06-26T01:16:32;9.13;;;6.00;;
79249;SDS011;68679;51.030;7.584;2023-06-26T01:18:58;9.40;;;5.72;;
79249;SDS011;68679;51.030;7.584;2023-06-26T01:21:24;11.27;;;6.13;;
79249;SDS011;68679;51.030;7.584;2023-06-26T01:26:45;10.32;;;6.60;;
79249;SDS011;68679;51.030;7.584;2023-06-26T01:29:13;11.25;;;6.63;;
79249;SDS011;68679;51.030;7.584;2023-06-26T01:31:40;8.40;;;5.80;;
79249;SDS011;68679;51.030;7.584;2023-06-26T01:34:06;8.80;;;6.13;;
79249;SDS011;68679;51.030;7.584;2023-06-26T01:36:32;11.82;;;6.30;;
79249;SDS011;68679;51.030;7.584;2023-06-26T01:38:57;9.03;;;6.03;;
79249;SDS011;68679;51.030;7.584;2023-06-26T01:41:22;9.63;;;5.67;;
79249;SDS011;68679;51.030;7.584;2023-06-26T01:57:21;11.75;;;6.07;;
79249;SDS011;68679;51.030;7.584;2023-06-26T01:59:47;9.70;;;6.03;;
79249;SDS011;68679;51.030;7.584;2023-06-26T02:02:14;8.70;;;6.20;;
79249;SDS011;68679;51.030;7.584;2023-06-26T02:04:40;9.40;;;5.67;;
79249;SDS011;68679;51.030;7.584;2023-06-26T02:07:06;10.55;;;6.68;;
79249;SDS011;68679;51.030;7.584;2023-06-26T02:09:31;9.40;;;5.47;;
79249;SDS011;68679;51.030;7.584;2023-06-26T02:11:56;8.77;;;6.17;;
79249;SDS011;68679;51.030;7.584;2023-06-26T02:14:21;10.98;;;6.13;;
79249;SDS011;68679;51.030;7.584;2023-06-26T02:16:47;8.70;;;5.53;;
79249;SDS011;68679;51.030;7.584;2023-06-26T02:19:12;13.63;;;6.33;;
79249;SDS011;68679;51.030;7.584;2023-06-26T02:21:37;8.90;;;5.60;;
79249;SDS011;68679;51.030;7.584;2023-06-26T02:24:03;12.15;;;6.68;;
79249;SDS011;68679;51.030;7.584;2023-06-26T02:26:29;10.15;;;5.65;;
79249;SDS011;68679;51.030;7.584;2023-06-26T02:28:55;9.70;;;6.17;;
79249;SDS011;68679;51.030;7.584;2023-06-26T02:31:20;9.47;;;5.40;;
79249;SDS011;68679;51.030;7.584;2023-06-26T02:33:45;9.80;;;6.47;;
79249;SDS011;68679;51.030;7.584;2023-06-26T02:36:10;10.57;;;6.37;;
79249;SDS011;68679;51.030;7.584;2023-06-26T02:38:36;13.03;;;6.70;;
79249;SDS011;68679;51.030;7.584;2023-06-26T02:41:01;9.87;;;5.90;;
79249;SDS011;68679;51.030;7.584;2023-06-26T02:43:26;10.13;;;5.90;;
79249;SDS011;68679;51.030;7.584;2023-06-26T02:45:52;12.13;;;6.40;;
79249;SDS011;68679;51.030;7.584;2023-06-26T02:48:17;12.07;;;6.00;;
79249;SDS011;68679;51.030;7.584;2023-06-26T02:50:42;13.27;;;6.17;;
79249;SDS011;68679;51.030;7.584;2023-06-26T02:53:10;10.70;;;5.57;;
79249;SDS011;68679;51.030;7.584;2023-06-26T02:55:36;8.60;;;5.57;;
79249;SDS011;68679;51.030;7.584;2023-06-26T02:58:01;11.13;;;6.27;;
79249;SDS011;68679;51.030;7.584;2023-06-26T03:00:26;11.10;;;6.23;;
79249;SDS011;68679;51.030;7.584;2023-06-26T03:02:54;12.63;;;5.80;;
79249;SDS011;68679;51.030;7.584;2023-06-26T03:05:20;13.68;;;6.40;;
79249;SDS011;68679;51.030;7.584;2023-06-26T03:07:45;12.93;;;6.10;;
79249;SDS011;68679;51.030;7.584;2023-06-26T03:10:10;9.82;;;6.03;;
79249;SDS011;68679;51.030;7.584;2023-06-26T03:12:36;11.33;;;6.73;;
79249;SDS011;68679;51.030;7.584;2023-06-26T03:15:01;11.97;;;6.53;;
79249;SDS011;68679;51.030;7.584;2023-06-26T03:17:26;9.90;;;5.93;;
79249;SDS011;68679;51.030;7.584;2023-06-26T03:19:51;8.13;;;5.87;;
79249;SDS011;68679;51.030;7.584;2023-06-26T03:22:17;10.97;;;5.87;;
79249;SDS011;68679;51.030;7.584;2023-06-26T03:24:43;14.65;;;6.53;;
79249;SDS011;68679;51.030;7.584;2023-06-26T03:27:09;11.57;;;5.95;;
79249;SDS011;68679;51.030;7.584;2023-06-26T03:29:34;11.20;;;5.77;;
79249;SDS011;68679;51.030;7.584;2023-06-26T03:32:00;12.05;;;6.43;;
79249;SDS011;68679;51.030;7.584;2023-06-26T03:34:25;10.23;;;6.20;;
79249;SDS011;68679;51.030;7.584;2023-06-26T03:36:50;10.77;;;6.23;;
79249;SDS011;68679;51.030;7.584;2023-06-26T03:39:15;8.47;;;5.90;;
79249;SDS011;68679;51.030;7.584;2023-06-26T03:41:41;12.53;;;6.57;;
79249;SDS011;68679;51.030;7.584;2023-06-26T03:44:06;9.87;;;5.70;;
79249;SDS011;68679;51.030;7.584;2023-06-26T03:46:31;8.37;;;5.50;;
79249;SDS011;68679;51.030;7.584;2023-06-26T03:48:57;11.18;;;6.45;;
79249;SDS011;68679;51.030;7.584;2023-06-26T03:51:22;12.77;;;6.70;;
79249;SDS011;68679;51.030;7.584;2023-06-26T03:53:47;11.93;;;6.00;;
79249;SDS011;68679;51.030;7.584;2023-06-26T03:56:13;9.00;;;6.03;;
79249;SDS011;68679;51.030;7.584;2023-06-26T03:58:39;8.77;;;5.82;;
79249;SDS011;68679;51.030;7.584;2023-06-26T04:01:04;10.40;;;5.97;;
79249;SDS011;68679;51.030;7.584;2023-06-26T04:03:29;11.73;;;6.27;;
79249;SDS011;68679;51.030;7.584;2023-06-26T04:05:55;10.38;;;5.97;;
79249;SDS011;68679;51.030;7.584;2023-06-26T04:08:20;8.37;;;5.37;;
79249;SDS011;68679;51.030;7.584;2023-06-26T04:10:46;12.25;;;6.15;;
79249;SDS011;68679;51.030;7.584;2023-06-26T04:13:12;10.65;;;6.20;;
79249;SDS011;68679;51.030;7.584;2023-06-26T04:15:39;14.02;;;6.50;;
79249;SDS011;68679;51.030;7.584;2023-06-26T04:18:04;10.23;;;5.73;;
79249;SDS011;68679;51.030;7.584;2023-06-26T04:20:29;16.57;;;7.10;;
79249;SDS011;68679;51.030;7.584;2023-06-26T04:22:55;10.90;;;5.85;;
79249;SDS011;68679;51.030;7.584;2023-06-26T04:25:20;11.30;;;5.73;;
79249;SDS011;68679;51.030;7.584;2023-06-26T04:27:45;11.53;;;5.83;;
79249;SDS011;68679;51.030;7.584;2023-06-26T04:30:11;14.70;;;5.90;;
79249;SDS011;68679;51.030;7.584;2023-06-26T04:32:37;9.65;;;6.38;;
79249;SDS011;68679;51.030;7.584;2023-06-26T04:35:02;13.13;;;6.60;;
79249;SDS011;68679;51.030;7.584;2023-06-26T04:37:28;12.80;;;5.90;;
79249;SDS011;68679;51.030;7.584;2023-06-26T04:39:53;15.43;;;6.35;;
79249;SDS011;68679;51.030;7.584;2023-06-26T04:42:18;14.43;;;6.30;;
79249;SDS011;68679;51.030;7.584;2023-06-26T04:44:46;12.75;;;6.32;;
79249;SDS011;68679;51.030;7.584;2023-06-26T04:47:11;14.03;;;6.90;;
79249;SDS011;68679;51.030;7.584;2023-06-26T04:49:39;11.20;;;5.90;;
79249;SDS011;68679;51.030;7.584;2023-06-26T04:52:08;10.57;;;6.35;;
79249;SDS011;68679;51.030;7.584;2023-06-26T04:54:33;12.00;;;6.20;;
79249;SDS011;68679;51.030;7.584;2023-06-26T04:56:58;10.87;;;6.37;;
79249;SDS011;68679;51.030;7.584;2023-06-26T04:59:24;14.13;;;6.65;;
79249;SDS011;68679;51.030;7.584;2023-06-26T05:01:50;11.40;;;6.20;;
79249;SDS011;68679;51.030;7.584;2023-06-26T05:04:15;11.20;;;5.97;;
79249;SDS011;68679;51.030;7.584;2023-06-26T05:06:41;17.33;;;6.82;;
79249;SDS011;68679;51.030;7.584;2023-06-26T05:09:06;13.40;;;6.70;;
79249;SDS011;68679;51.030;7.584;2023-06-26T05:11:32;11.07;;;5.90;;
79249;SDS011;68679;51.030;7.584;2023-06-26T05:13:57;11.65;;;6.82;;
79249;SDS011;68679;51.030;7.584;2023-06-26T05:16:23;11.63;;;6.17;;
79249;SDS011;68679;51.030;7.584;2023-06-26T05:18:48;14.50;;;6.57;;
79249;SDS011;68679;51.030;7.584;2023-06-26T05:21:13;9.80;;;6.27;;
79249;SDS011;68679;51.030;7.584;2023-06-26T05:23:40;11.05;;;6.88;;
79249;SDS011;68679;51.030;7.584;2023-06-26T05:26:06;10.63;;;6.78;;
79249;SDS011;68679;51.030;7.584;2023-06-26T05:28:32;9.18;;;6.38;;
79249;SDS011;68679;51.030;7.584;2023-06-26T05:30:58;11.10;;;6.68;;
79249;SDS011;68679;51.030;7.584;2023-06-26T05:33:24;10.90;;;6.70;;
79249;SDS011;68679;51.030;7.584;2023-06-26T05:35:51;14.32;;;6.57;;
79249;SDS011;68679;51.030;7.584;2023-06-26T05:38:17;10.65;;;5.97;;
79249;SDS011;68679;51.030;7.584;2023-06-26T05:40:43;11.63;;;7.55;;
79249;SDS011;68679;51.030;7.584;2023-06-26T05:43:08;13.02;;;6.70;;
79249;SDS011;68679;51.030;7.584;2023-06-26T05:45:34;11.57;;;6.93;;
79249;SDS011;68679;51.030;7.584;2023-06-26T05:47:59;10.55;;;6.72;;
79249;SDS011;68679;51.030;7.584;2023-06-26T05:50:25;9.93;;;6.15;;
79249;SDS011;68679;51.030;7.584;2023-06-26T05:52:51;9.57;;;6.07;;
79249;SDS011;68679;51.030;7.584;2023-06-26T05:55:17;11.32;;;6.40;;
79249;SDS011;68679;51.030;7.584;2023-06-26T05:57:42;11.70;;;6.60;;
79249;SDS011;68679;51.030;7.584;2023-06-26T06:00:08;12.20;;;6.78;;
79249;SDS011;68679;51.030;7.584;2023-06-26T06:02:37;12.13;;;7.50;;
79249;SDS011;68679;51.030;7.584;2023-06-26T06:05:03;14.20;;;7.22;;
79249;SDS011;68679;51.030;7.584;2023-06-26T06:07:29;13.05;;;8.10;;
79249;SDS011;68679;51.030;7.584;2023-06-26T06:09:54;13.10;;;7.03;;
79249;SDS011;68679;51.030;7.584;2023-06-26T06:12:19;9.73;;;6.00;;
79249;SDS011;68679;51.030;7.584;2023-06-26T06:14:45;11.63;;;6.90;;
79249;SDS011;68679;51.030;7.584;2023-06-26T06:17:10;11.63;;;6.20;;
79249;SDS011;68679;51.030;7.584;2023-06-26T06:19:35;11.37;;;7.13;;
79249;SDS011;68679;51.030;7.584;2023-06-26T06:22:00;11.57;;;7.40;;
79249;SDS011;68679;51.030;7.584;2023-06-26T06:24:26;11.70;;;7.83;;
79249;SDS011;68679;51.030;7.584;2023-06-26T06:26:51;11.57;;;7.40;;
79249;SDS011;68679;51.030;7.584;2023-06-26T06:29:16;12.87;;;7.67;;
79249;SDS011;68679;51.030;7.584;2023-06-26T06:31:43;14.48;;;6.50;;
79249;SDS011;68679;51.030;7.584;2023-06-26T06:34:09;10.43;;;7.27;;
79249;SDS011;68679;51.030;7.584;2023-06-26T06:36:34;13.23;;;6.37;;
79249;SDS011;68679;51.030;7.584;2023-06-26T06:39:00;12.45;;;7.95;;
79249;SDS011;68679;51.030;7.584;2023-06-26T06:41:25;12.83;;;8.23;;
79249;SDS011;68679;51.030;7.584;2023-06-26T06:43:50;10.95;;;5.28;;
79249;SDS011;68679;51.030;7.584;2023-06-26T06:46:18;11.98;;;7.07;;
79249;SDS011;68679;51.030;7.584;2023-06-26T06:48:43;10.63;;;5.67;;
79249;SDS011;68679;51.030;7.584;2023-06-26T06:51:08;10.67;;;5.93;;
79249;SDS011;68679;51.030;7.584;2023-06-26T06:53:34;12.13;;;6.63;;
79249;SDS011;68679;51.030;7.584;2023-06-26T06:55:59;8.97;;;5.23;;
79249;SDS011;68679;51.030;7.584;2023-06-26T06:58:24;12.87;;;5.20;;
79249;SDS011;68679;51.030;7.584;2023-06-26T07:00:50;9.17;;;5.43;;
79249;SDS011;68679;51.030;7.584;2023-06-26T07:03:16;9.63;;;6.22;;
79249;SDS011;68679;51.030;7.584;2023-06-26T07:05:42;11.80;;;6.00;;
79249;SDS011;68679;51.030;7.584;2023-06-26T07:08:07;11.03;;;6.40;;
79249;SDS011;68679;51.030;7.584;2023-06-26T07:10:33;10.90;;;6.53;;
79249;SDS011;68679;51.030;7.584;2023-06-26T07:12:58;11.43;;;6.55;;
79249;SDS011;68679;51.030;7.584;2023-06-26T07:15:24;10.88;;;5.22;;
79249;SDS011;68679;51.030;7.584;2023-06-26T07:17:49;11.80;;;5.60;;
79249;SDS011;68679;51.030;7.584;2023-06-26T07:20:14;10.30;;;5.17;;
79249;SDS011;68679;51.030;7.584;2023-06-26T07:22:40;8.50;;;4.68;;
79249;SDS011;68679;51.030;7.584;2023-06-26T07:25:06;9.60;;;5.50;;
79249;SDS011;68679;51.030;7.584;2023-06-26T07:27:35;11.70;;;6.25;;
79249;SDS011;68679;51.030;7.584;2023-06-26T07:30:04;9.77;;;5.80;;
79249;SDS011;68679;51.030;7.584;2023-06-26T07:32:29;10.63;;;5.50;;
79249;SDS011;68679;51.030;7.584;2023-06-26T07:34:55;9.07;;;5.30;;
79249;SDS011;68679;51.030;7.584;2023-06-26T07:37:20;13.57;;;5.88;;
79249;SDS011;68679;51.030;7.584;2023-06-26T07:39:46;12.25;;;5.13;;
79249;SDS011;68679;51.030;7.584;2023-06-26T07:42:12;9.23;;;5.32;;
79249;SDS011;68679;51.030;7.584;2023-06-26T07:44:37;8.30;;;5.78;;
79249;SDS011;68679;51.030;7.584;2023-06-26T07:47:03;11.67;;;7.13;;
79249;SDS011;68679;51.030;7.584;2023-06-26T07:49:28;11.27;;;6.00;;
79249;SDS011;68679;51.030;7.584;2023-06-26T07:51:54;11.67;;;5.70;;
79249;SDS011;68679;51.030;7.584;2023-06-26T07:54:19;10.10;;;5.53;;
79249;SDS011;68679;51.030;7.584;2023-06-26T07:56:54;14.13;;;6.73;;
79249;SDS011;68679;51.030;7.584;2023-06-26T07:59:21;15.98;;;6.88;;
79249;SDS011;68679;51.030;7.584;2023-06-26T08:01:48;16.58;;;7.25;;
79249;SDS011;68679;51.030;7.584;2023-06-26T08:04:14;11.52;;;6.85;;
79249;SDS011;68679;51.030;7.584;2023-06-26T08:06:39;11.33;;;6.83;;
79249;SDS011;68679;51.030;7.584;2023-06-26T08:09:05;13.00;;;6.05;;
79249;SDS011;68679;51.030;7.584;2023-06-26T08:11:33;12.25;;;7.35;;
79249;SDS011;68679;51.030;7.584;2023-06-26T08:13:59;9.57;;;5.65;;
79249;SDS011;68679;51.030;7.584;2023-06-26T08:16:24;9.32;;;5.53;;
79249;SDS011;68679;51.030;7.584;2023-06-26T08:18:50;12.13;;;6.38;;
79249;SDS011;68679;51.030;7.584;2023-06-26T08:21:16;12.55;;;6.93;;
79249;SDS011;68679;51.030;7.584;2023-06-26T08:23:41;11.88;;;6.47;;
79249;SDS011;68679;51.030;7.584;2023-06-26T08:26:06;13.50;;;6.30;;
79249;SDS011;68679;51.030;7.584;2023-06-26T08:28:32;9.38;;;6.25;;
79249;SDS011;68679;51.030;7.584;2023-06-26T08:30:57;10.90;;;7.57;;
79249;SDS011;68679;51.030;7.584;2023-06-26T08:33:23;15.53;;;6.60;;
79249;SDS011;68679;51.030;7.584;2023-06-26T08:35:48;13.37;;;7.07;;
79249;SDS011;68679;51.030;7.584;2023-06-26T08:38:15;11.60;;;6.85;;
79249;SDS011;68679;51.030;7.584;2023-06-26T08:40:40;11.77;;;6.63;;
79249;SDS011;68679;51.030;7.584;2023-06-26T08:43:06;13.65;;;6.47;;
79249;SDS011;68679;51.030;7.584;2023-06-26T08:45:31;12.85;;;6.38;;
79249;SDS011;68679;51.030;7.584;2023-06-26T08:47:57;12.68;;;5.60;;
79249;SDS011;68679;51.030;7.584;2023-06-26T08:50:25;11.55;;;6.13;;
79249;SDS011;68679;51.030;7.584;2023-06-26T08:55:41;13.35;;;7.90;;
79249;SDS011;68679;51.030;7.584;2023-06-26T08:58:08;13.85;;;7.53;;
79249;SDS011;68679;51.030;7.584;2023-06-26T09:00:33;10.68;;;6.07;;
79249;SDS011;68679;51.030;7.584;2023-06-26T09:02:59;11.57;;;6.20;;
79249;SDS011;68679;51.030;7.584;2023-06-26T09:05:25;12.48;;;6.20;;
79249;SDS011;68679;51.030;7.584;2023-06-26T09:07:52;12.85;;;6.85;;
79249;SDS011;68679;51.030;7.584;2023-06-26T09:10:20;12.30;;;5.47;;
79249;SDS011;68679;51.030;7.584;2023-06-26T09:12:46;11.43;;;6.18;;
79249;SDS011;68679;51.030;7.584;2023-06-26T09:15:13;12.90;;;4.72;;
79249;SDS011;68679;51.030;7.584;2023-06-26T09:17:40;14.00;;;5.63;;
79249;SDS011;68679;51.030;7.584;2023-06-26T09:20:06;14.38;;;6.10;;
79249;SDS011;68679;51.030;7.584;2023-06-26T09:22:33;10.82;;;5.50;;
79249;SDS011;68679;51.030;7.584;2023-06-26T09:25:02;15.18;;;5.60;;
79249;SDS011;68679;51.030;7.584;2023-06-26T09:27:28;9.55;;;5.47;;
79249;SDS011;68679;51.030;7.584;2023-06-26T09:29:53;8.93;;;5.30;;
79249;SDS011;68679;51.030;7.584;2023-06-26T09:32:23;8.70;;;5.30;;
79249;SDS011;68679;51.030;7.584;2023-06-26T09:34:52;10.98;;;5.72;;
79249;SDS011;68679;51.030;7.584;2023-06-26T09:37:39;14.13;;;7.10;;
79249;SDS011;68679;51.030;7.584;2023-06-26T09:40:05;9.35;;;5.07;;
79249;SDS011;68679;51.030;7.584;2023-06-26T09:42:31;8.32;;;5.05;;
79249;SDS011;68679;51.030;7.584;2023-06-26T09:44:57;12.77;;;4.68;;
79249;SDS011;68679;51.030;7.584;2023-06-26T09:47:23;12.18;;;5.00;;
79249;SDS011;68679;51.030;7.584;2023-06-26T09:49:48;9.13;;;4.65;;
79249;SDS011;68679;51.030;7.584;2023-06-26T09:52:17;10.70;;;5.37;;
79249;SDS011;68679;51.030;7.584;2023-06-26T09:54:43;8.68;;;5.20;;
79249;SDS011;68679;51.030;7.584;2023-06-26T09:57:13;17.38;;;6.18;;
79249;SDS011;68679;51.030;7.584;2023-06-26T09:59:41;10.50;;;5.13;;
79249;SDS011;68679;51.030;7.584;2023-06-26T10:02:10;8.80;;;4.93;;
79249;SDS011;68679;51.030;7.584;2023-06-26T10:04:36;11.88;;;5.32;;
79249;SDS011;68679;51.030;7.584;2023-06-26T10:07:04;9.00;;;5.00;;
79249;SDS011;68679;51.030;7.584;2023-06-26T10:09:31;11.13;;;5.30;;
79249;SDS011;68679;51.030;7.584;2023-06-26T10:12:00;12.07;;;5.63;;
79249;SDS011;68679;51.030;7.584;2023-06-26T10:14:31;11.30;;;4.82;;
79249;SDS011;68679;51.030;7.584;2023-06-26T10:17:01;8.48;;;4.30;;
79249;SDS011;68679;51.030;7.584;2023-06-26T10:19:28;14.30;;;5.10;;
79249;SDS011;68679;51.030;7.584;2023-06-26T10:21:56;10.65;;;4.68;;
79249;SDS011;68679;51.030;7.584;2023-06-26T10:24:23;9.52;;;4.30;;
79249;SDS011;68679;51.030;7.584;2023-06-26T10:26:56;10.88;;;5.10;;
79249;SDS011;68679;51.030;7.584;2023-06-26T10:29:27;8.65;;;4.32;;
79249;SDS011;68679;51.030;7.584;2023-06-26T10:31:55;10.70;;;4.90;;
79249;SDS011;68679;51.030;7.584;2023-06-26T10:34:23;15.55;;;4.80;;
79249;SDS011;68679;51.030;7.584;2023-06-26T10:37:00;9.35;;;4.50;;
79249;SDS011;68679;51.030;7.584;2023-06-26T10:39:31;10.00;;;4.35;;
79249;SDS011;68679;51.030;7.584;2023-06-26T10:42:33;11.80;;;4.95;;
79249;SDS011;68679;51.030;7.584;2023-06-26T10:45:08;8.45;;;4.70;;
79249;SDS011;68679;51.030;7.584;2023-06-26T10:47:54;11.85;;;4.47;;
79249;SDS011;68679;51.030;7.584;2023-06-26T10:50:23;8.95;;;3.42;;
79249;SDS011;68679;51.030;7.584;2023-06-26T10:55:34;10.80;;;3.88;;
79249;SDS011;68679;51.030;7.584;2023-06-26T10:58:00;9.32;;;4.13;;
79249;SDS011;68679;51.030;7.584;2023-06-26T11:00:27;9.32;;;4.20;;
79249;SDS011;68679;51.030;7.584;2023-06-26T11:02:52;8.00;;;4.20;;
79249;SDS011;68679;51.030;7.584;2023-06-26T11:05:28;8.88;;;3.97;;
79249;SDS011;68679;51.030;7.584;2023-06-26T11:08:07;8.65;;;4.15;;
79249;SDS011;68679;51.030;7.584;2023-06-26T11:10:52;9.73;;;3.90;;
79249;SDS011;68679;51.030;7.584;2023-06-26T11:13:18;10.38;;;3.72;;
79249;SDS011;68679;51.030;7.584;2023-06-26T11:15:45;10.70;;;4.15;;
79249;SDS011;68679;51.030;7.584;2023-06-26T11:18:11;9.10;;;3.58;;
79249;SDS011;68679;51.030;7.584;2023-06-26T11:20:37;6.70;;;3.03;;
79249;SDS011;68679;51.030;7.584;2023-06-26T11:23:03;5.37;;;3.10;;
79249;SDS011;68679;51.030;7.584;2023-06-26T11:25:33;5.95;;;3.10;;
79249;SDS011;68679;51.030;7.584;2023-06-26T11:28:03;8.05;;;3.10;;
79249;SDS011;68679;51.030;7.584;2023-06-26T11:30:30;7.68;;;3.30;;
79249;SDS011;68679;51.030;7.584;2023-06-26T11:33:02;12.02;;;2.85;;
79249;SDS011;68679;51.030;7.584;2023-06-26T11:35:29;8.32;;;3.83;;
79249;SDS011;68679;51.030;7.584;2023-06-26T11:37:58;9.05;;;4.05;;
79249;SDS011;68679;51.030;7.584;2023-06-26T11:40:27;8.20;;;3.42;;
79249;SDS011;68679;51.030;7.584;2023-06-26T11:42:55;5.80;;;2.65;;
79249;SDS011;68679;51.030;7.584;2023-06-26T11:45:21;6.35;;;2.80;;
79249;SDS011;68679;51.030;7.584;2023-06-26T11:47:46;6.67;;;3.43;;
79249;SDS011;68679;51.030;7.584;2023-06-26T11:50:15;8.97;;;3.43;;
79249;SDS011;68679;51.030;7.584;2023-06-26T11:52:42;8.50;;;3.42;;
79249;SDS011;68679;51.030;7.584;2023-06-26T11:55:07;7.03;;;3.50;;
79249;SDS011;68679;51.030;7.584;2023-06-26T11:57:33;7.93;;;2.92;;
79249;SDS011;68679;51.030;7.584;2023-06-26T11:59:58;6.63;;;3.17;;
79249;SDS011;68679;51.030;7.584;2023-06-26T12:02:35;6.60;;;3.10;;
79249;SDS011;68679;51.030;7.584;2023-06-26T12:05:00;6.60;;;2.73;;
79249;SDS011;68679;51.030;7.584;2023-06-26T12:07:26;7.05;;;2.85;;
79249;SDS011;68679;51.030;7.584;2023-06-26T12:09:51;7.47;;;3.30;;
79249;SDS011;68679;51.030;7.584;2023-06-26T12:12:18;7.47;;;2.90;;
79249;SDS011;68679;51.030;7.584;2023-06-26T12:14:43;9.73;;;3.78;;
79249;SDS011;68679;51.030;7.584;2023-06-26T12:17:10;8.45;;;3.42;;
79249;SDS011;68679;51.030;7.584;2023-06-26T12:19:37;4.25;;;2.30;;
79249;SDS011;68679;51.030;7.584;2023-06-26T12:22:07;9.70;;;3.83;;
79249;SDS011;68679;51.030;7.584;2023-06-26T12:24:32;11.75;;;3.45;;
79249;SDS011;68679;51.030;7.584;2023-06-26T12:26:57;8.20;;;3.67;;
79249;SDS011;68679;51.030;7.584;2023-06-26T12:29:31;7.63;;;3.33;;
79249;SDS011;68679;51.030;7.584;2023-06-26T12:31:57;12.30;;;3.13;;
79249;SDS011;68679;51.030;7.584;2023-06-26T12:34:28;10.38;;;3.17;;
79249;SDS011;68679;51.030;7.584;2023-06-26T12:36:59;9.25;;;2.95;;
79249;SDS011;68679;51.030;7.584;2023-06-26T12:42:41;6.50;;;3.13;;
79249;SDS011;68679;51.030;7.584;2023-06-26T12:45:10;8.77;;;2.90;;
79249;SDS011;68679;51.030;7.584;2023-06-26T12:47:36;7.30;;;2.72;;
79249;SDS011;68679;51.030;7.584;2023-06-26T12:50:04;6.85;;;2.78;;
79249;SDS011;68679;51.030;7.584;2023-06-26T12:52:30;8.07;;;2.70;;
79249;SDS011;68679;51.030;7.584;2023-06-26T12:54:55;7.47;;;2.87;;
79249;SDS011;68679;51.030;7.584;2023-06-26T12:57:21;7.55;;;2.92;;
79249;SDS011;68679;51.030;7.584;2023-06-26T12:59:46;6.07;;;2.38;;
79249;SDS011;68679;51.030;7.584;2023-06-26T13:02:12;5.33;;;2.47;;
79249;SDS011;68679;51.030;7.584;2023-06-26T13:04:37;7.22;;;2.60;;
79249;SDS011;68679;51.030;7.584;2023-06-26T13:07:05;3.92;;;2.20;;
79249;SDS011;68679;51.030;7.584;2023-06-26T13:09:31;7.47;;;2.20;;
79249;SDS011;68679;51.030;7.584;2023-06-26T13:11:58;6.20;;;2.30;;
79249;SDS011;68679;51.030;7.584;2023-06-26T13:14:24;4.63;;;2.10;;
79249;SDS011;68679;51.030;7.584;2023-06-26T13:16:49;5.23;;;1.80;;
79249;SDS011;68679;51.030;7.584;2023-06-26T13:19:14;5.07;;;2.13;;
79249;SDS011;68679;51.030;7.584;2023-06-26T13:21:40;5.40;;;1.55;;
79249;SDS011;68679;51.030;7.584;2023-06-26T13:24:06;5.35;;;2.17;;
79249;SDS011;68679;51.030;7.584;2023-06-26T13:26:32;6.88;;;2.40;;
79249;SDS011;68679;51.030;7.584;2023-06-26T13:28:58;3.42;;;2.03;;
79249;SDS011;68679;51.030;7.584;2023-06-26T13:31:23;5.13;;;2.00;;
79249;SDS011;68679;51.030;7.584;2023-06-26T13:33:48;5.15;;;1.77;;
79249;SDS011;68679;51.030;7.584;2023-06-26T13:36:15;4.70;;;1.90;;
79249;SDS011;68679;51.030;7.584;2023-06-26T13:38:41;5.32;;;2.00;;
79249;SDS011;68679;51.030;7.584;2023-06-26T13:41:06;7.68;;;2.10;;
79249;SDS011;68679;51.030;7.584;2023-06-26T13:43:31;4.93;;;2.20;;
79249;SDS011;68679;51.030;7.584;2023-06-26T13:46:00;5.10;;;1.90;;
79249;SDS011;68679;51.030;7.584;2023-06-26T13:48:25;5.38;;;2.30;;
79249;SDS011;68679;51.030;7.584;2023-06-26T13:50:51;4.60;;;1.90;;
79249;SDS011;68679;51.030;7.584;2023-06-26T13:53:16;7.25;;;2.40;;
79249;SDS011;68679;51.030;7.584;2023-06-26T13:55:42;3.83;;;1.80;;
79249;SDS011;68679;51.030;7.584;2023-06-26T13:58:07;4.95;;;2.10;;
79249;SDS011;68679;51.030;7.584;2023-06-26T14:00:33;5.93;;;1.80;;
79249;SDS011;68679;51.030;7.584;2023-06-26T14:03:00;5.78;;;1.70;;
79249;SDS011;68679;51.030;7.584;2023-06-26T14:05:26;4.93;;;1.52;;
79249;SDS011;68679;51.030;7.584;2023-06-26T14:07:52;4.60;;;1.83;;
79249;SDS011;68679;51.030;7.584;2023-06-26T14:10:19;4.22;;;1.90;;
79249;SDS011;68679;51.030;7.584;2023-06-26T14:12:44;5.07;;;1.92;;
79249;SDS011;68679;51.030;7.584;2023-06-26T14:15:10;6.07;;;1.70;;
79249;SDS011;68679;51.030;7.584;2023-06-26T14:17:35;5.38;;;1.95;;
79249;SDS011;68679;51.030;7.584;2023-06-26T14:20:00;5.70;;;1.80;;
79249;SDS011;68679;51.030;7.584;2023-06-26T14:22:26;4.38;;;1.70;;
79249;SDS011;68679;51.030;7.584;2023-06-26T14:24:51;4.03;;;1.50;;
79249;SDS011;68679;51.030;7.584;2023-06-26T14:27:16;4.25;;;1.60;;
79249;SDS011;68679;51.030;7.584;2023-06-26T14:29:42;3.80;;;2.00;;
79249;SDS011;68679;51.030;7.584;2023-06-26T14:32:07;3.75;;;1.60;;
79249;SDS011;68679;51.030;7.584;2023-06-26T14:34:32;4.70;;;1.60;;
79249;SDS011;68679;51.030;7.584;2023-06-26T14:36:58;5.70;;;1.70;;
79249;SDS011;68679;51.030;7.584;2023-06-26T14:39:23;4.57;;;1.55;;
79249;SDS011;68679;51.030;7.584;2023-06-26T14:41:49;2.70;;;1.30;;
79249;SDS011;68679;51.030;7.584;2023-06-26T14:44:14;5.00;;;1.77;;
79249;SDS011;68679;51.030;7.584;2023-06-26T14:46:40;5.53;;;1.50;;
79249;SDS011;68679;51.030;7.584;2023-06-26T14:49:05;8.33;;;1.93;;
79249;SDS011;68679;51.030;7.584;2023-06-26T14:51:31;6.10;;;1.65;;
79249;SDS011;68679;51.030;7.584;2023-06-26T14:53:56;4.60;;;1.40;;
79249;SDS011;68679;51.030;7.584;2023-06-26T14:56:22;4.70;;;1.50;;
79249;SDS011;68679;51.030;7.584;2023-06-26T14:58:47;5.23;;;1.57;;
79249;SDS011;68679;51.030;7.584;2023-06-26T15:01:13;7.90;;;1.88;;